Talkeetna Airport
PATK : rendu visible

Aérodrome :











RETROUVEZ-NOUS SUR...

 
LOGIN :

S'inscrire | Disclaimer

   EN    FR    IT 

 









Légende :    VFR   VFR Marginal   IFR   IFR Intensif   IFR Très Intensif
Visi : 
Plafond : 
>= 8 km
>= 3000ft
5 à 8 km
1000 à 3000 ft
1500m à 5 km
500 à 1000 ft
800 à 1500m
200 à 500 ft
< 800m
< 200 ft
Symboles :   Orages  Brouillard  Fortes neiges  Fortes précipitations  Vent > 20 kt






- Altitude de l'aérodrome : 358 ft


PATK - Talkeetna

DERNIER METAR :
  • 301853Z 02007KT 10SM OVC070 M07/M12 A2931 RMK AO2 SLP931 T10671117

METARs EXPIRÉS :
  • 301753Z 35003KT 10SM OVC070 M07/M12 A2930 RMK AO2 SLP931 60000 T10671117 11050 21072 55001
  • 301653Z AUTO 01003KT 10SM BKN070 M06/M11 A2929 RMK AO2 SLP924 T10561111 TSNO

TAF PATK
Valide du 30 à 18h jusqu'au 01 à 18h UTC


301729Z 3018/0118 01005KT P6SM BKN070
FM010500 01010G18KT P6SM -SN BKN045
FM011000 02005KT 1SM -SN OVC015
FIR PAZA / Amérique du Nord



MET'MAP, la Météo Aéronautique d'un coup d'oeil ! - Copyright ORBIFLY Décembre 2007 - Disclaimer

ORBIFLY MET'MAP TEAM :

Programmation & Développement : Alexandra Zaïnal
Sur une idée originale de : Baudouin d'Aumeries
Assistance à la programmation : Marc-Olivier Méhu
Soutien technique & logistique : Manuel Goepfert

Contact : metmap@orbifly.com




SOURCES & CREDITS :

   NOAA       Earth
Advisory